sensor_id;sensor_type;location;lat;lon;timestamp;pressure;altitude;pressure_sealevel;temperature;humidity
38054;BME280;23859;50.672;7.164;2024-01-25T00:01:54;35851.91;;;-140.95;63.83
38054;BME280;23859;50.672;7.164;2024-01-25T00:04:20;36153.28;;;-140.95;63.46
38054;BME280;23859;50.672;7.164;2024-01-25T00:06:46;35839.84;;;-140.95;63.44
38054;BME280;23859;50.672;7.164;2024-01-25T00:09:12;35843.88;;;-140.95;63.94
38054;BME280;23859;50.672;7.164;2024-01-25T00:11:38;35841.84;;;-140.95;63.85
38054;BME280;23859;50.672;7.164;2024-01-25T00:14:04;35888.06;;;-140.95;64.15
38054;BME280;23859;50.672;7.164;2024-01-25T00:16:31;35896.09;;;-140.95;63.77
38054;BME280;23859;50.672;7.164;2024-01-25T00:18:57;35853.91;;;-140.95;63.92
38054;BME280;23859;50.672;7.164;2024-01-25T00:21:23;35857.94;;;-140.95;64.24
38054;BME280;23859;50.672;7.164;2024-01-25T00:23:49;35859.94;;;-140.95;64.84
38054;BME280;23859;50.672;7.164;2024-01-25T00:26:15;35859.94;;;-140.95;65.08
38054;BME280;23859;50.672;7.164;2024-01-25T00:28:41;35851.91;;;-140.95;65.02
38054;BME280;23859;50.672;7.164;2024-01-25T00:31:07;35892.09;;;-140.95;65.97
38054;BME280;23859;50.672;7.164;2024-01-25T00:33:33;35849.88;;;-140.95;65.63
38054;BME280;23859;50.672;7.164;2024-01-25T00:35:59;35865.97;;;-140.95;65.69
38054;BME280;23859;50.672;7.164;2024-01-25T00:38:25;35900.13;;;-140.95;65.38
38054;BME280;23859;50.672;7.164;2024-01-25T00:40:52;35910.16;;;-140.95;65.86
38054;BME280;23859;50.672;7.164;2024-01-25T00:43:19;35920.22;;;-140.95;65.53
38054;BME280;23859;50.672;7.164;2024-01-25T00:45:45;35910.16;;;-140.95;65.84
38054;BME280;23859;50.672;7.164;2024-01-25T00:48:12;35902.13;;;-140.95;65.74
38054;BME280;23859;50.672;7.164;2024-01-25T00:50:38;35900.13;;;-140.95;65.90
38054;BME280;23859;50.672;7.164;2024-01-25T00:53:05;35861.94;;;-140.95;65.67
38054;BME280;23859;50.672;7.164;2024-01-25T00:55:31;35847.88;;;-140.95;65.36
38054;BME280;23859;50.672;7.164;2024-01-25T00:57:57;35888.06;;;-140.95;65.99
38054;BME280;23859;50.672;7.164;2024-01-25T01:00:25;35900.13;;;-140.95;66.08
38054;BME280;23859;50.672;7.164;2024-01-25T01:02:53;35867.97;;;-140.95;65.93
38054;BME280;23859;50.672;7.164;2024-01-25T01:05:20;35896.09;;;-140.95;66.29
38054;BME280;23859;50.672;7.164;2024-01-25T01:07:47;35890.06;;;-140.95;65.95
38054;BME280;23859;50.672;7.164;2024-01-25T01:10:13;35884.03;;;-140.95;66.05
38054;BME280;23859;50.672;7.164;2024-01-25T01:12:40;35900.13;;;-140.95;66.22
38054;BME280;23859;50.672;7.164;2024-01-25T01:15:06;35867.97;;;-140.95;65.85
38054;BME280;23859;50.672;7.164;2024-01-25T01:17:32;35900.13;;;-140.95;65.87
38054;BME280;23859;50.672;7.164;2024-01-25T01:19:58;35872.00;;;-140.95;66.23
38054;BME280;23859;50.672;7.164;2024-01-25T01:22:24;35888.06;;;-140.95;65.95
38054;BME280;23859;50.672;7.164;2024-01-25T01:24:50;35861.94;;;-140.95;65.58
38054;BME280;23859;50.672;7.164;2024-01-25T01:27:16;35876.00;;;-140.95;66.08
38054;BME280;23859;50.672;7.164;2024-01-25T01:29:43;35890.06;;;-140.95;66.09
38054;BME280;23859;50.672;7.164;2024-01-25T01:32:09;35924.22;;;-140.95;67.08
38054;BME280;23859;50.672;7.164;2024-01-25T01:34:35;35904.13;;;-140.95;66.69
38054;BME280;23859;50.672;7.164;2024-01-25T01:37:01;35918.19;;;-140.95;66.70
38054;BME280;23859;50.672;7.164;2024-01-25T01:39:27;35924.22;;;-140.95;67.03
38054;BME280;23859;50.672;7.164;2024-01-25T01:41:53;35936.28;;;-140.95;67.38
38054;BME280;23859;50.672;7.164;2024-01-25T01:44:19;35952.34;;;-140.95;67.98
38054;BME280;23859;50.672;7.164;2024-01-25T01:46:46;35954.38;;;-140.95;68.00
38054;BME280;23859;50.672;7.164;2024-01-25T01:49:14;35946.34;;;-140.95;67.95
38054;BME280;23859;50.672;7.164;2024-01-25T01:51:41;35936.28;;;-140.95;67.44
38054;BME280;23859;50.672;7.164;2024-01-25T01:54:10;35918.19;;;-140.95;67.90
38054;BME280;23859;50.672;7.164;2024-01-25T01:56:37;35920.22;;;-140.95;67.26
38054;BME280;23859;50.672;7.164;2024-01-25T01:59:08;35916.19;;;-140.95;67.60
38054;BME280;23859;50.672;7.164;2024-01-25T02:01:34;35940.31;;;-140.95;67.22
38054;BME280;23859;50.672;7.164;2024-01-25T02:04:00;35904.13;;;-140.95;66.74
38054;BME280;23859;50.672;7.164;2024-01-25T02:06:26;35908.16;;;-140.95;66.32
38054;BME280;23859;50.672;7.164;2024-01-25T02:08:53;35906.16;;;-140.95;66.98
38054;BME280;23859;50.672;7.164;2024-01-25T02:11:20;35904.13;;;-140.95;67.36
38054;BME280;23859;50.672;7.164;2024-01-25T02:13:46;35952.34;;;-140.95;67.68
38054;BME280;23859;50.672;7.164;2024-01-25T02:16:13;35932.28;;;-140.95;67.92
38054;BME280;23859;50.672;7.164;2024-01-25T02:18:41;35944.31;;;-140.95;68.31
38054;BME280;23859;50.672;7.164;2024-01-25T02:21:08;36209.56;;;-140.95;68.54
38054;BME280;23859;50.672;7.164;2024-01-25T02:23:34;35924.22;;;-140.95;68.21
38054;BME280;23859;50.672;7.164;2024-01-25T02:26:00;35962.41;;;-140.95;68.87
38054;BME280;23859;50.672;7.164;2024-01-25T02:28:26;35934.28;;;-140.95;68.72
38054;BME280;23859;50.672;7.164;2024-01-25T02:30:53;35984.50;;;-140.95;69.47
38054;BME280;23859;50.672;7.164;2024-01-25T02:33:19;35978.47;;;-140.95;69.81
38054;BME280;23859;50.672;7.164;2024-01-25T02:35:45;35988.53;;;-140.95;70.17
38054;BME280;23859;50.672;7.164;2024-01-25T02:38:11;35994.56;;;-140.95;71.25
38054;BME280;23859;50.672;7.164;2024-01-25T02:40:37;35996.56;;;-140.95;71.60
38054;BME280;23859;50.672;7.164;2024-01-25T02:43:03;35994.56;;;-140.95;71.76
38054;BME280;23859;50.672;7.164;2024-01-25T02:45:29;35998.56;;;-140.95;71.58
38054;BME280;23859;50.672;7.164;2024-01-25T02:47:55;35996.56;;;-140.95;71.41
38054;BME280;23859;50.672;7.164;2024-01-25T02:50:21;36259.78;;;-140.95;71.50
38054;BME280;23859;50.672;7.164;2024-01-25T02:52:47;35970.44;;;-140.95;70.86
38054;BME280;23859;50.672;7.164;2024-01-25T02:55:13;35964.41;;;-140.95;70.08
38054;BME280;23859;50.672;7.164;2024-01-25T02:57:39;35990.53;;;-140.95;70.03
38054;BME280;23859;50.672;7.164;2024-01-25T03:00:06;35988.53;;;-140.95;70.54
38054;BME280;23859;50.672;7.164;2024-01-25T03:02:32;35982.50;;;-140.95;70.98
38054;BME280;23859;50.672;7.164;2024-01-25T03:04:58;35936.28;;;-140.95;70.47
38054;BME280;23859;50.672;7.164;2024-01-25T03:07:24;35960.41;;;-140.95;70.81
38054;BME280;23859;50.672;7.164;2024-01-25T03:09:50;35948.34;;;-140.95;70.35
38054;BME280;23859;50.672;7.164;2024-01-25T03:12:16;35940.31;;;-140.95;70.51
38054;BME280;23859;50.672;7.164;2024-01-25T03:14:42;36010.63;;;-140.95;70.64
38054;BME280;23859;50.672;7.164;2024-01-25T03:17:08;35960.41;;;-140.95;71.09
38054;BME280;23859;50.672;7.164;2024-01-25T03:19:34;35982.50;;;-140.95;71.48
38054;BME280;23859;50.672;7.164;2024-01-25T03:22:00;35972.44;;;-140.95;71.63
38054;BME280;23859;50.672;7.164;2024-01-25T03:24:28;35968.44;;;-140.95;72.17
38054;BME280;23859;50.672;7.164;2024-01-25T03:26:54;36004.59;;;-140.95;72.38
38054;BME280;23859;50.672;7.164;2024-01-25T03:29:20;35984.50;;;-140.95;72.70
38054;BME280;23859;50.672;7.164;2024-01-25T03:31:47;35970.44;;;-140.95;72.64
38054;BME280;23859;50.672;7.164;2024-01-25T03:34:13;35964.41;;;-140.95;72.84
38054;BME280;23859;50.672;7.164;2024-01-25T03:36:39;36048.81;;;-140.95;72.81
38054;BME280;23859;50.672;7.164;2024-01-25T03:39:06;35972.44;;;-140.95;72.78
38054;BME280;23859;50.672;7.164;2024-01-25T03:41:33;35982.50;;;-140.95;72.84
38054;BME280;23859;50.672;7.164;2024-01-25T03:43:59;35986.53;;;-140.95;73.35
38054;BME280;23859;50.672;7.164;2024-01-25T03:46:25;35996.56;;;-140.95;73.70
38054;BME280;23859;50.672;7.164;2024-01-25T03:48:51;36028.72;;;-140.95;73.52
38054;BME280;23859;50.672;7.164;2024-01-25T03:51:17;36010.63;;;-140.95;74.15
38054;BME280;23859;50.672;7.164;2024-01-25T03:53:43;36038.75;;;-140.95;73.89
38054;BME280;23859;50.672;7.164;2024-01-25T03:56:12;36002.59;;;-140.95;73.90
38054;BME280;23859;50.672;7.164;2024-01-25T03:58:44;36000.59;;;-140.95;74.03
38054;BME280;23859;50.672;7.164;2024-01-25T04:01:10;36026.69;;;-140.95;74.43
38054;BME280;23859;50.672;7.164;2024-01-25T04:03:36;36048.81;;;-140.95;74.32
38054;BME280;23859;50.672;7.164;2024-01-25T04:06:02;36018.66;;;-140.95;74.69
38054;BME280;23859;50.672;7.164;2024-01-25T04:08:28;36008.63;;;-140.95;74.65
38054;BME280;23859;50.672;7.164;2024-01-25T04:10:54;36032.72;;;-140.95;74.35
38054;BME280;23859;50.672;7.164;2024-01-25T04:13:20;35996.56;;;-140.95;74.23
38054;BME280;23859;50.672;7.164;2024-01-25T04:15:46;36012.63;;;-140.95;73.67
38054;BME280;23859;50.672;7.164;2024-01-25T04:18:12;35984.50;;;-140.95;73.30
38054;BME280;23859;50.672;7.164;2024-01-25T04:20:39;35968.44;;;-140.95;73.24
38054;BME280;23859;50.672;7.164;2024-01-25T04:23:05;35984.50;;;-140.95;73.16
38054;BME280;23859;50.672;7.164;2024-01-25T04:25:31;35988.53;;;-140.95;72.77
38054;BME280;23859;50.672;7.164;2024-01-25T04:27:57;36000.59;;;-140.95;73.30
38054;BME280;23859;50.672;7.164;2024-01-25T04:30:23;35970.44;;;-140.95;72.72
38054;BME280;23859;50.672;7.164;2024-01-25T04:32:49;35946.34;;;-140.95;72.49
38054;BME280;23859;50.672;7.164;2024-01-25T04:35:15;35988.53;;;-140.95;72.38
38054;BME280;23859;50.672;7.164;2024-01-25T04:37:41;35984.50;;;-140.95;72.62
38054;BME280;23859;50.672;7.164;2024-01-25T04:40:08;35960.41;;;-140.95;72.55
38054;BME280;23859;50.672;7.164;2024-01-25T04:42:34;35984.50;;;-140.95;72.73
38054;BME280;23859;50.672;7.164;2024-01-25T04:45:00;35964.41;;;-140.95;72.22
38054;BME280;23859;50.672;7.164;2024-01-25T04:47:26;36306.00;;;-140.95;72.53
38054;BME280;23859;50.672;7.164;2024-01-25T04:49:52;35952.34;;;-140.95;72.37
38054;BME280;23859;50.672;7.164;2024-01-25T04:52:18;36002.59;;;-140.95;72.38
38054;BME280;23859;50.672;7.164;2024-01-25T04:54:44;35968.44;;;-140.95;73.26
38054;BME280;23859;50.672;7.164;2024-01-25T04:57:10;35998.56;;;-140.95;72.99
38054;BME280;23859;50.672;7.164;2024-01-25T04:59:36;35978.47;;;-140.95;73.30
38054;BME280;23859;50.672;7.164;2024-01-25T05:02:02;36020.69;;;-140.95;73.84
38054;BME280;23859;50.672;7.164;2024-01-25T05:04:29;36026.69;;;-140.95;74.67
38054;BME280;23859;50.672;7.164;2024-01-25T05:06:56;36046.78;;;-140.95;75.53
38054;BME280;23859;50.672;7.164;2024-01-25T05:09:22;36020.69;;;-140.95;75.11
38054;BME280;23859;50.672;7.164;2024-01-25T05:11:48;36016.66;;;-140.95;75.29
38054;BME280;23859;50.672;7.164;2024-01-25T05:14:15;36010.63;;;-140.95;75.26
38054;BME280;23859;50.672;7.164;2024-01-25T05:16:41;36297.97;;;-140.95;75.98
38054;BME280;23859;50.672;7.164;2024-01-25T05:19:07;36046.78;;;-140.95;76.22
38054;BME280;23859;50.672;7.164;2024-01-25T05:21:33;36048.81;;;-140.95;76.53
38054;BME280;23859;50.672;7.164;2024-01-25T05:23:59;36040.78;;;-140.95;77.04
38054;BME280;23859;50.672;7.164;2024-01-25T05:26:26;36056.84;;;-140.95;76.68
38054;BME280;23859;50.672;7.164;2024-01-25T05:28:52;36060.88;;;-140.95;76.80
38054;BME280;23859;50.672;7.164;2024-01-25T05:31:18;36036.75;;;-140.95;77.30
38054;BME280;23859;50.672;7.164;2024-01-25T05:33:44;36046.78;;;-140.95;77.16
38054;BME280;23859;50.672;7.164;2024-01-25T05:36:10;36036.75;;;-140.95;77.43
38054;BME280;23859;50.672;7.164;2024-01-25T05:38:36;36078.94;;;-140.95;77.33
38054;BME280;23859;50.672;7.164;2024-01-25T05:41:02;36036.75;;;-140.95;77.18
38054;BME280;23859;50.672;7.164;2024-01-25T05:43:28;36084.97;;;-140.95;77.09
38054;BME280;23859;50.672;7.164;2024-01-25T05:45:54;36060.88;;;-140.95;77.09
38054;BME280;23859;50.672;7.164;2024-01-25T05:48:20;36348.19;;;-140.95;77.28
38054;BME280;23859;50.672;7.164;2024-01-25T05:50:46;36060.88;;;-140.95;77.45
38054;BME280;23859;50.672;7.164;2024-01-25T05:53:13;36064.88;;;-140.95;77.84
38054;BME280;23859;50.672;7.164;2024-01-25T05:55:39;36074.94;;;-140.95;78.01
38054;BME280;23859;50.672;7.164;2024-01-25T05:58:05;36107.06;;;-140.95;78.24
38054;BME280;23859;50.672;7.164;2024-01-25T06:00:31;36062.88;;;-140.95;77.82
38054;BME280;23859;50.672;7.164;2024-01-25T06:02:57;36097.03;;;-140.95;78.09
38054;BME280;23859;50.672;7.164;2024-01-25T06:05:23;36074.94;;;-140.95;77.82
38054;BME280;23859;50.672;7.164;2024-01-25T06:07:49;36060.88;;;-140.95;77.62
38054;BME280;23859;50.672;7.164;2024-01-25T06:10:16;36093.00;;;-140.95;78.24
38054;BME280;23859;50.672;7.164;2024-01-25T06:12:42;36072.91;;;-140.95;77.82
38054;BME280;23859;50.672;7.164;2024-01-25T06:15:08;36076.94;;;-140.95;78.24
38054;BME280;23859;50.672;7.164;2024-01-25T06:17:34;36076.94;;;-140.95;77.96
38054;BME280;23859;50.672;7.164;2024-01-25T06:20:01;36101.03;;;-140.95;78.37
38054;BME280;23859;50.672;7.164;2024-01-25T06:22:28;36113.09;;;-140.95;78.80
38054;BME280;23859;50.672;7.164;2024-01-25T06:24:54;36089.00;;;-140.95;79.29
38054;BME280;23859;50.672;7.164;2024-01-25T06:27:20;36109.09;;;-140.95;79.93
38054;BME280;23859;50.672;7.164;2024-01-25T06:29:46;36109.09;;;-140.95;79.97
38054;BME280;23859;50.672;7.164;2024-01-25T06:32:12;36103.06;;;-140.95;80.11
38054;BME280;23859;50.672;7.164;2024-01-25T06:34:38;36109.09;;;-140.95;80.42
38054;BME280;23859;50.672;7.164;2024-01-25T06:37:04;36149.28;;;-140.95;80.69
38054;BME280;23859;50.672;7.164;2024-01-25T06:39:30;36135.22;;;-140.95;80.91
38054;BME280;23859;50.672;7.164;2024-01-25T06:41:56;36137.22;;;-140.95;81.05
38054;BME280;23859;50.672;7.164;2024-01-25T06:44:23;36143.25;;;-140.95;81.82
38054;BME280;23859;50.672;7.164;2024-01-25T06:46:49;36113.09;;;-140.95;82.09
38054;BME280;23859;50.672;7.164;2024-01-25T06:49:15;36153.28;;;-140.95;82.04
38054;BME280;23859;50.672;7.164;2024-01-25T06:51:41;36113.09;;;-140.95;82.18
38054;BME280;23859;50.672;7.164;2024-01-25T06:54:07;36151.28;;;-140.95;82.22
38054;BME280;23859;50.672;7.164;2024-01-25T06:56:34;36181.41;;;-140.95;82.65
38054;BME280;23859;50.672;7.164;2024-01-25T06:59:00;36145.25;;;-140.95;83.14
38054;BME280;23859;50.672;7.164;2024-01-25T07:01:26;36169.38;;;-140.95;83.09
38054;BME280;23859;50.672;7.164;2024-01-25T07:03:53;36193.47;;;-140.95;82.83
38054;BME280;23859;50.672;7.164;2024-01-25T07:06:20;36133.19;;;-140.95;82.86
38054;BME280;23859;50.672;7.164;2024-01-25T07:08:47;36153.28;;;-140.95;82.62
38054;BME280;23859;50.672;7.164;2024-01-25T07:11:13;36157.31;;;-140.95;82.22
38054;BME280;23859;50.672;7.164;2024-01-25T07:13:40;36153.28;;;-140.95;82.24
38054;BME280;23859;50.672;7.164;2024-01-25T07:16:07;36161.31;;;-140.95;82.63
38054;BME280;23859;50.672;7.164;2024-01-25T07:18:33;36173.38;;;-140.95;82.07
38054;BME280;23859;50.672;7.164;2024-01-25T07:21:00;36185.44;;;-140.95;82.61
38054;BME280;23859;50.672;7.164;2024-01-25T07:23:26;36155.31;;;-140.95;83.05
38054;BME280;23859;50.672;7.164;2024-01-25T07:25:52;36181.41;;;-140.95;83.08
38054;BME280;23859;50.672;7.164;2024-01-25T07:28:21;36179.41;;;-140.95;82.74
38054;BME280;23859;50.672;7.164;2024-01-25T07:30:48;36187.44;;;-140.95;82.58
38054;BME280;23859;50.672;7.164;2024-01-25T07:33:15;36155.31;;;-140.95;82.80
38054;BME280;23859;50.672;7.164;2024-01-25T07:35:41;36183.44;;;-140.95;82.88
38054;BME280;23859;50.672;7.164;2024-01-25T07:38:12;36163.34;;;-140.95;82.53
38054;BME280;23859;50.672;7.164;2024-01-25T07:40:38;36219.59;;;-140.95;82.16
38054;BME280;23859;50.672;7.164;2024-01-25T07:43:04;36177.41;;;-140.95;81.74
38054;BME280;23859;50.672;7.164;2024-01-25T07:45:32;36167.34;;;-140.95;81.30
38054;BME280;23859;50.672;7.164;2024-01-25T07:47:58;36185.44;;;-140.95;81.42
38054;BME280;23859;50.672;7.164;2024-01-25T07:50:25;36171.38;;;-140.95;81.44
38054;BME280;23859;50.672;7.164;2024-01-25T07:52:51;36189.47;;;-140.95;81.55
38054;BME280;23859;50.672;7.164;2024-01-25T07:55:17;36163.34;;;-140.95;81.74
38054;BME280;23859;50.672;7.164;2024-01-25T07:57:43;36161.31;;;-140.95;81.23
38054;BME280;23859;50.672;7.164;2024-01-25T08:00:10;36105.06;;;-140.95;81.02
38054;BME280;23859;50.672;7.164;2024-01-25T08:02:36;36111.09;;;-140.95;80.53
38054;BME280;23859;50.672;7.164;2024-01-25T08:05:04;36145.25;;;-140.95;80.33
38054;BME280;23859;50.672;7.164;2024-01-25T08:07:31;36129.19;;;-140.95;80.36
38054;BME280;23859;50.672;7.164;2024-01-25T08:09:59;36084.97;;;-140.95;80.29
38054;BME280;23859;50.672;7.164;2024-01-25T08:12:25;36113.09;;;-140.95;79.84
38054;BME280;23859;50.672;7.164;2024-01-25T08:14:51;36121.13;;;-140.95;79.54
38054;BME280;23859;50.672;7.164;2024-01-25T08:17:18;36125.16;;;-140.95;79.16
38054;BME280;23859;50.672;7.164;2024-01-25T08:19:45;36394.41;;;-140.95;78.82
38054;BME280;23859;50.672;7.164;2024-01-25T08:22:12;36080.97;;;-140.95;78.52
38054;BME280;23859;50.672;7.164;2024-01-25T08:24:39;36084.97;;;-140.95;78.07
38054;BME280;23859;50.672;7.164;2024-01-25T08:27:05;36062.88;;;-140.95;77.62
38054;BME280;23859;50.672;7.164;2024-01-25T08:29:33;36036.75;;;-140.95;77.50
38054;BME280;23859;50.672;7.164;2024-01-25T08:31:59;36050.81;;;-140.95;76.83
38054;BME280;23859;50.672;7.164;2024-01-25T08:34:25;36016.66;;;-140.95;76.86
38054;BME280;23859;50.672;7.164;2024-01-25T08:36:51;36277.88;;;-140.95;75.87
38054;BME280;23859;50.672;7.164;2024-01-25T08:39:17;36020.69;;;-140.95;75.40
38054;BME280;23859;50.672;7.164;2024-01-25T08:41:43;35988.53;;;-140.95;73.35
38054;BME280;23859;50.672;7.164;2024-01-25T08:44:11;35926.25;;;-140.95;72.39
38054;BME280;23859;50.672;7.164;2024-01-25T08:46:37;35914.19;;;-140.95;69.11
38054;BME280;23859;50.672;7.164;2024-01-25T08:49:04;35859.94;;;-140.95;66.92
38054;BME280;23859;50.672;7.164;2024-01-25T08:51:34;35847.88;;;-140.95;65.47
38054;BME280;23859;50.672;7.164;2024-01-25T08:54:12;35847.88;;;-140.95;65.52
38054;BME280;23859;50.672;7.164;2024-01-25T08:56:38;35878.03;;;-140.95;65.99
38054;BME280;23859;50.672;7.164;2024-01-25T08:59:05;35815.72;;;-140.95;64.74
38054;BME280;23859;50.672;7.164;2024-01-25T09:01:31;35791.63;;;-140.95;63.38
38054;BME280;23859;50.672;7.164;2024-01-25T09:03:57;35765.50;;;-140.95;62.73
38054;BME280;23859;50.672;7.164;2024-01-25T09:06:28;35735.38;;;-140.95;60.98
38054;BME280;23859;50.672;7.164;2024-01-25T09:08:55;35733.34;;;-140.95;60.95
38054;BME280;23859;50.672;7.164;2024-01-25T09:11:21;35695.19;;;-140.95;59.15
38054;BME280;23859;50.672;7.164;2024-01-25T09:13:48;35659.03;;;-140.95;56.80
38054;BME280;23859;50.672;7.164;2024-01-25T09:16:15;35614.81;;;-140.95;56.23
38054;BME280;23859;50.672;7.164;2024-01-25T09:18:41;35580.66;;;-140.95;55.95
38054;BME280;23859;50.672;7.164;2024-01-25T09:21:07;35558.56;;;-140.95;53.54
38054;BME280;23859;50.672;7.164;2024-01-25T09:23:33;35482.22;;;-140.95;53.87
38054;BME280;23859;50.672;7.164;2024-01-25T09:25:59;35522.41;;;-140.95;53.50
38054;BME280;23859;50.672;7.164;2024-01-25T09:28:25;35522.41;;;-140.95;53.42
38054;BME280;23859;50.672;7.164;2024-01-25T09:30:51;35494.28;;;-140.95;51.10
38054;BME280;23859;50.672;7.164;2024-01-25T09:33:17;34230.81;;;-140.95;50.34
38054;BME280;23859;50.672;7.164;2024-01-25T09:35:44;35600.75;;;-140.95;51.23
38054;BME280;23859;50.672;7.164;2024-01-25T09:38:13;35576.66;;;-140.95;52.08
38054;BME280;23859;50.672;7.164;2024-01-25T09:40:39;35572.63;;;-140.95;51.58
38054;BME280;23859;50.672;7.164;2024-01-25T09:43:05;35546.50;;;-140.95;50.11
38054;BME280;23859;50.672;7.164;2024-01-25T09:45:32;35526.41;;;-140.95;50.12
38054;BME280;23859;50.672;7.164;2024-01-25T09:47:58;35514.38;;;-140.95;49.90
38054;BME280;23859;50.672;7.164;2024-01-25T09:50:24;35438.03;;;-140.95;49.13
38054;BME280;23859;50.672;7.164;2024-01-25T09:52:54;35458.13;;;-140.95;47.44
38054;BME280;23859;50.672;7.164;2024-01-25T09:55:25;35403.88;;;-140.95;47.23
38054;BME280;23859;50.672;7.164;2024-01-25T09:57:54;35494.28;;;-140.95;46.97
38054;BME280;23859;50.672;7.164;2024-01-25T10:00:24;35506.34;;;-140.95;48.45
38054;BME280;23859;50.672;7.164;2024-01-25T10:02:50;35417.94;;;-140.95;47.78
38054;BME280;23859;50.672;7.164;2024-01-25T10:05:17;35401.88;;;-140.95;47.39
38054;BME280;23859;50.672;7.164;2024-01-25T10:07:45;35405.88;;;-140.95;45.29
38054;BME280;23859;50.672;7.164;2024-01-25T10:10:12;35379.75;;;-140.95;44.69
38054;BME280;23859;50.672;7.164;2024-01-25T10:12:41;35456.09;;;-140.95;45.72
38054;BME280;23859;50.672;7.164;2024-01-25T10:15:07;35409.91;;;-140.95;46.14
38054;BME280;23859;50.672;7.164;2024-01-25T10:17:34;35421.94;;;-140.95;46.29
38054;BME280;23859;50.672;7.164;2024-01-25T10:20:00;35365.69;;;-140.95;45.91
38054;BME280;23859;50.672;7.164;2024-01-25T10:22:26;35317.50;;;-140.95;44.92
38054;BME280;23859;50.672;7.164;2024-01-25T10:24:53;35269.28;;;-140.95;44.38
38054;BME280;23859;50.672;7.164;2024-01-25T10:27:20;35221.06;;;-140.95;42.20
38054;BME280;23859;50.672;7.164;2024-01-25T10:29:47;35148.75;;;-140.95;42.21
38054;BME280;23859;50.672;7.164;2024-01-25T10:32:13;35120.63;;;-140.95;40.47
38054;BME280;23859;50.672;7.164;2024-01-25T10:34:39;35016.16;;;-140.95;39.78
38054;BME280;23859;50.672;7.164;2024-01-25T10:37:07;35092.50;;;-140.95;39.38
38054;BME280;23859;50.672;7.164;2024-01-25T10:39:34;35090.47;;;-140.95;39.91
38054;BME280;23859;50.672;7.164;2024-01-25T10:42:00;35164.81;;;-140.95;40.37
38054;BME280;23859;50.672;7.164;2024-01-25T10:44:27;35231.09;;;-140.95;41.79
38054;BME280;23859;50.672;7.164;2024-01-25T10:46:53;35178.88;;;-140.95;41.67
38054;BME280;23859;50.672;7.164;2024-01-25T10:49:20;35128.66;;;-140.95;40.67
38054;BME280;23859;50.672;7.164;2024-01-25T10:51:47;35128.66;;;-140.95;40.28
38054;BME280;23859;50.672;7.164;2024-01-25T10:54:15;35126.66;;;-140.95;39.28
38054;BME280;23859;50.672;7.164;2024-01-25T10:56:42;35138.69;;;-140.95;39.35
38054;BME280;23859;50.672;7.164;2024-01-25T10:59:10;35084.47;;;-140.95;38.53
38054;BME280;23859;50.672;7.164;2024-01-25T11:01:36;35162.81;;;-140.95;39.99
38054;BME280;23859;50.672;7.164;2024-01-25T11:04:11;35196.94;;;-140.95;41.14
38054;BME280;23859;50.672;7.164;2024-01-25T11:06:37;35202.97;;;-140.95;40.20
38054;BME280;23859;50.672;7.164;2024-01-25T11:09:07;35200.97;;;-140.95;39.65
38054;BME280;23859;50.672;7.164;2024-01-25T11:11:36;35257.22;;;-140.95;39.77
38054;BME280;23859;50.672;7.164;2024-01-25T11:14:03;35194.94;;;-140.95;39.50
38054;BME280;23859;50.672;7.164;2024-01-25T11:16:30;35188.91;;;-140.95;39.49
38054;BME280;23859;50.672;7.164;2024-01-25T11:18:58;35186.91;;;-140.95;38.59
38054;BME280;23859;50.672;7.164;2024-01-25T11:21:41;35176.88;;;-140.95;39.55
38054;BME280;23859;50.672;7.164;2024-01-25T11:26:44;35365.69;;;-140.95;41.18
38054;BME280;23859;50.672;7.164;2024-01-25T11:29:20;35277.31;;;-140.95;40.88
38054;BME280;23859;50.672;7.164;2024-01-25T11:31:49;35337.56;;;-140.95;40.58
38054;BME280;23859;50.672;7.164;2024-01-25T11:34:16;35345.63;;;-140.95;40.39
38054;BME280;23859;50.672;7.164;2024-01-25T11:36:44;35249.19;;;-140.95;39.71
38054;BME280;23859;50.672;7.164;2024-01-25T11:39:10;35345.63;;;-140.95;40.48
38054;BME280;23859;50.672;7.164;2024-01-25T11:41:37;35349.63;;;-140.95;39.98
38054;BME280;23859;50.672;7.164;2024-01-25T11:44:03;35207.00;;;-140.95;39.17
38054;BME280;23859;50.672;7.164;2024-01-25T11:46:31;35086.47;;;-140.95;36.47
38054;BME280;23859;50.672;7.164;2024-01-25T11:48:58;35106.56;;;-140.95;35.69
38054;BME280;23859;50.672;7.164;2024-01-25T11:51:25;35052.31;;;-140.95;34.76
38054;BME280;23859;50.672;7.164;2024-01-25T11:53:55;35148.75;;;-140.95;36.84
38054;BME280;23859;50.672;7.164;2024-01-25T11:56:32;35104.53;;;-140.95;36.09
38054;BME280;23859;50.672;7.164;2024-01-25T11:58:59;35160.78;;;-140.95;36.89
38054;BME280;23859;50.672;7.164;2024-01-25T12:01:26;35229.09;;;-140.95;37.49
38054;BME280;23859;50.672;7.164;2024-01-25T12:03:54;35200.97;;;-140.95;37.46
38054;BME280;23859;50.672;7.164;2024-01-25T12:06:20;35273.28;;;-140.95;38.08
38054;BME280;23859;50.672;7.164;2024-01-25T12:08:46;35223.06;;;-140.95;37.25
38054;BME280;23859;50.672;7.164;2024-01-25T12:11:14;35182.88;;;-140.95;36.02
38054;BME280;23859;50.672;7.164;2024-01-25T12:13:42;35237.13;;;-140.95;35.98
38054;BME280;23859;50.672;7.164;2024-01-25T12:16:09;34988.03;;;-140.95;34.69
38054;BME280;23859;50.672;7.164;2024-01-25T12:18:36;35064.38;;;-140.95;34.35
38054;BME280;23859;50.672;7.164;2024-01-25T12:21:04;34994.06;;;-140.95;34.96
38054;BME280;23859;50.672;7.164;2024-01-25T12:23:39;35082.44;;;-140.95;36.27
38054;BME280;23859;50.672;7.164;2024-01-25T12:26:07;35106.56;;;-140.95;35.48
38054;BME280;23859;50.672;7.164;2024-01-25T12:28:33;35158.78;;;-140.95;36.61
38054;BME280;23859;50.672;7.164;2024-01-25T12:31:03;35233.13;;;-140.95;37.32
38054;BME280;23859;50.672;7.164;2024-01-25T12:33:30;35277.31;;;-140.95;39.01
38054;BME280;23859;50.672;7.164;2024-01-25T12:35:56;35247.19;;;-140.95;38.13
38054;BME280;23859;50.672;7.164;2024-01-25T12:38:26;35257.22;;;-140.95;37.39
38054;BME280;23859;50.672;7.164;2024-01-25T12:40:52;35190.94;;;-140.95;36.67